sensor_id;sensor_type;location;lat;lon;timestamp;temperature;humidity
45237;DHT22;30973;51.442;3.580;2022-08-14T00:02:01;25.10;70.00
45237;DHT22;30973;51.442;3.580;2022-08-14T00:04:30;25.10;69.60
45237;DHT22;30973;51.442;3.580;2022-08-14T00:07:10;25.10;69.40
45237;DHT22;30973;51.442;3.580;2022-08-14T00:09:44;25.00;69.70
45237;DHT22;30973;51.442;3.580;2022-08-14T00:12:23;25.00;69.60
45237;DHT22;30973;51.442;3.580;2022-08-14T00:15:16;25.10;68.80
45237;DHT22;30973;51.442;3.580;2022-08-14T00:17:45;25.00;69.00
45237;DHT22;30973;51.442;3.580;2022-08-14T00:20:22;25.00;69.00
45237;DHT22;30973;51.442;3.580;2022-08-14T00:23:03;24.90;68.80
45237;DHT22;30973;51.442;3.580;2022-08-14T00:25:41;24.80;69.40
45237;DHT22;30973;51.442;3.580;2022-08-14T00:28:20;24.80;69.20
45237;DHT22;30973;51.442;3.580;2022-08-14T00:30:58;24.80;69.50
45237;DHT22;30973;51.442;3.580;2022-08-14T00:33:27;24.80;69.90
45237;DHT22;30973;51.442;3.580;2022-08-14T00:36:16;24.70;69.40
45237;DHT22;30973;51.442;3.580;2022-08-14T00:39:03;24.70;69.50
45237;DHT22;30973;51.442;3.580;2022-08-14T00:41:35;24.70;69.70
45237;DHT22;30973;51.442;3.580;2022-08-14T00:44:05;24.70;70.20
45237;DHT22;30973;51.442;3.580;2022-08-14T00:46:36;24.70;70.30
45237;DHT22;30973;51.442;3.580;2022-08-14T00:49:04;24.70;70.00
45237;DHT22;30973;51.442;3.580;2022-08-14T00:51:33;24.70;70.00
45237;DHT22;30973;51.442;3.580;2022-08-14T00:54:07;24.70;69.90
45237;DHT22;30973;51.442;3.580;2022-08-14T00:56:52;24.70;70.50
45237;DHT22;30973;51.442;3.580;2022-08-14T00:59:28;24.70;70.50
45237;DHT22;30973;51.442;3.580;2022-08-14T01:01:58;24.60;70.60
45237;DHT22;30973;51.442;3.580;2022-08-14T01:04:27;24.50;70.70
45237;DHT22;30973;51.442;3.580;2022-08-14T01:07:15;24.50;70.00
45237;DHT22;30973;51.442;3.580;2022-08-14T01:09:52;24.50;70.10
45237;DHT22;30973;51.442;3.580;2022-08-14T01:12:21;24.50;70.00
45237;DHT22;30973;51.442;3.580;2022-08-14T01:14:57;24.50;70.40
45237;DHT22;30973;51.442;3.580;2022-08-14T01:17:27;24.50;70.00
45237;DHT22;30973;51.442;3.580;2022-08-14T01:20:17;24.50;69.80
45237;DHT22;30973;51.442;3.580;2022-08-14T01:23:12;24.40;70.30
45237;DHT22;30973;51.442;3.580;2022-08-14T01:25:43;24.40;69.90
45237;DHT22;30973;51.442;3.580;2022-08-14T01:28:12;24.40;70.50
45237;DHT22;30973;51.442;3.580;2022-08-14T01:30:59;24.40;70.80
45237;DHT22;30973;51.442;3.580;2022-08-14T01:33:28;24.30;70.70
45237;DHT22;30973;51.442;3.580;2022-08-14T01:36:06;24.30;70.50
45237;DHT22;30973;51.442;3.580;2022-08-14T01:38:50;24.30;70.50
45237;DHT22;30973;51.442;3.580;2022-08-14T01:41:22;24.30;70.80
45237;DHT22;30973;51.442;3.580;2022-08-14T01:44:02;24.30;71.20
45237;DHT22;30973;51.442;3.580;2022-08-14T01:46:36;24.30;71.40
45237;DHT22;30973;51.442;3.580;2022-08-14T01:49:06;24.30;71.10
45237;DHT22;30973;51.442;3.580;2022-08-14T01:51:35;24.20;71.50
45237;DHT22;30973;51.442;3.580;2022-08-14T01:54:10;24.30;71.80
45237;DHT22;30973;51.442;3.580;2022-08-14T01:56:40;24.20;71.20
45237;DHT22;30973;51.442;3.580;2022-08-14T02:01:48;24.20;71.70
45237;DHT22;30973;51.442;3.580;2022-08-14T02:04:30;24.20;72.50
45237;DHT22;30973;51.442;3.580;2022-08-14T02:07:18;24.10;72.10
45237;DHT22;30973;51.442;3.580;2022-08-14T02:10:07;24.00;72.90
45237;DHT22;30973;51.442;3.580;2022-08-14T02:12:44;24.00;72.00
45237;DHT22;30973;51.442;3.580;2022-08-14T02:15:20;23.90;72.50
45237;DHT22;30973;51.442;3.580;2022-08-14T02:17:49;23.90;73.00
45237;DHT22;30973;51.442;3.580;2022-08-14T02:20:16;23.90;73.40
45237;DHT22;30973;51.442;3.580;2022-08-14T02:22:50;23.80;73.10
45237;DHT22;30973;51.442;3.580;2022-08-14T02:25:21;23.80;73.20
45237;DHT22;30973;51.442;3.580;2022-08-14T02:27:51;23.90;73.40
45237;DHT22;30973;51.442;3.580;2022-08-14T02:30:42;23.90;73.50
45237;DHT22;30973;51.442;3.580;2022-08-14T02:33:11;23.80;73.20
45237;DHT22;30973;51.442;3.580;2022-08-14T02:35:40;23.80;73.00
45237;DHT22;30973;51.442;3.580;2022-08-14T02:38:09;23.80;73.30
45237;DHT22;30973;51.442;3.580;2022-08-14T02:40:37;23.80;74.60
45237;DHT22;30973;51.442;3.580;2022-08-14T02:43:06;23.70;74.00
45237;DHT22;30973;51.442;3.580;2022-08-14T02:45:36;23.70;74.00
45237;DHT22;30973;51.442;3.580;2022-08-14T02:48:13;23.70;74.40
45237;DHT22;30973;51.442;3.580;2022-08-14T02:51:06;23.70;74.20
45237;DHT22;30973;51.442;3.580;2022-08-14T02:53:36;23.60;74.00
45237;DHT22;30973;51.442;3.580;2022-08-14T02:56:11;23.60;74.70
45237;DHT22;30973;51.442;3.580;2022-08-14T02:59:01;23.50;74.80
45237;DHT22;30973;51.442;3.580;2022-08-14T03:01:33;23.60;74.50
45237;DHT22;30973;51.442;3.580;2022-08-14T03:04:21;23.50;74.70
45237;DHT22;30973;51.442;3.580;2022-08-14T03:06:51;23.50;74.40
45237;DHT22;30973;51.442;3.580;2022-08-14T03:09:35;23.40;74.30
45237;DHT22;30973;51.442;3.580;2022-08-14T03:12:23;23.40;75.20
45237;DHT22;30973;51.442;3.580;2022-08-14T03:15:03;23.40;75.00
45237;DHT22;30973;51.442;3.580;2022-08-14T03:17:40;23.40;75.20
45237;DHT22;30973;51.442;3.580;2022-08-14T03:20:25;23.40;75.10
45237;DHT22;30973;51.442;3.580;2022-08-14T03:22:56;23.40;75.20
45237;DHT22;30973;51.442;3.580;2022-08-14T03:25:26;23.40;75.40
45237;DHT22;30973;51.442;3.580;2022-08-14T03:27:57;23.40;75.30
45237;DHT22;30973;51.442;3.580;2022-08-14T03:30:30;23.30;74.70
45237;DHT22;30973;51.442;3.580;2022-08-14T03:33:08;23.30;75.10
45237;DHT22;30973;51.442;3.580;2022-08-14T03:35:38;23.30;74.70
45237;DHT22;30973;51.442;3.580;2022-08-14T03:38:26;23.30;74.80
45237;DHT22;30973;51.442;3.580;2022-08-14T03:41:18;23.30;74.40
45237;DHT22;30973;51.442;3.580;2022-08-14T03:43:55;23.20;75.20
45237;DHT22;30973;51.442;3.580;2022-08-14T03:46:36;23.20;74.50
45237;DHT22;30973;51.442;3.580;2022-08-14T03:49:22;23.20;74.40
45237;DHT22;30973;51.442;3.580;2022-08-14T03:51:57;23.10;74.70
45237;DHT22;30973;51.442;3.580;2022-08-14T03:54:27;23.10;75.00
45237;DHT22;30973;51.442;3.580;2022-08-14T03:56:55;23.10;74.90
45237;DHT22;30973;51.442;3.580;2022-08-14T03:59:32;23.10;75.30
45237;DHT22;30973;51.442;3.580;2022-08-14T04:02:01;23.10;75.00
45237;DHT22;30973;51.442;3.580;2022-08-14T04:04:35;23.10;75.00
45237;DHT22;30973;51.442;3.580;2022-08-14T04:07:05;23.10;75.20
45237;DHT22;30973;51.442;3.580;2022-08-14T04:09:32;23.10;75.80
45237;DHT22;30973;51.442;3.580;2022-08-14T04:12:00;23.10;75.70
45237;DHT22;30973;51.442;3.580;2022-08-14T04:14:32;23.10;76.00
45237;DHT22;30973;51.442;3.580;2022-08-14T04:17:04;23.10;75.90
45237;DHT22;30973;51.442;3.580;2022-08-14T04:19:36;23.00;75.30
45237;DHT22;30973;51.442;3.580;2022-08-14T04:22:04;23.00;75.50
45237;DHT22;30973;51.442;3.580;2022-08-14T04:24:32;23.00;75.70
45237;DHT22;30973;51.442;3.580;2022-08-14T04:27:06;23.00;75.70
45237;DHT22;30973;51.442;3.580;2022-08-14T04:29:40;23.00;75.80
45237;DHT22;30973;51.442;3.580;2022-08-14T04:32:11;23.00;75.80
45237;DHT22;30973;51.442;3.580;2022-08-14T04:35:03;23.00;76.50
45237;DHT22;30973;51.442;3.580;2022-08-14T04:37:36;23.00;75.90
45237;DHT22;30973;51.442;3.580;2022-08-14T04:40:22;23.00;76.20
45237;DHT22;30973;51.442;3.580;2022-08-14T04:43:08;23.00;76.40
45237;DHT22;30973;51.442;3.580;2022-08-14T04:46:08;23.00;76.40
45237;DHT22;30973;51.442;3.580;2022-08-14T04:48:38;23.00;76.30
45237;DHT22;30973;51.442;3.580;2022-08-14T04:51:19;23.00;76.50
45237;DHT22;30973;51.442;3.580;2022-08-14T04:53:49;23.00;76.40
45237;DHT22;30973;51.442;3.580;2022-08-14T04:56:21;23.00;76.40
45237;DHT22;30973;51.442;3.580;2022-08-14T04:59:06;23.00;76.70
45237;DHT22;30973;51.442;3.580;2022-08-14T05:01:39;23.00;76.50
45237;DHT22;30973;51.442;3.580;2022-08-14T05:04:14;23.00;76.70
45237;DHT22;30973;51.442;3.580;2022-08-14T05:06:47;23.00;77.10
45237;DHT22;30973;51.442;3.580;2022-08-14T05:09:20;23.00;77.50
45237;DHT22;30973;51.442;3.580;2022-08-14T05:11:47;23.00;77.00
45237;DHT22;30973;51.442;3.580;2022-08-14T05:14:18;23.10;77.50
45237;DHT22;30973;51.442;3.580;2022-08-14T05:17:10;23.10;77.60
45237;DHT22;30973;51.442;3.580;2022-08-14T05:19:38;23.10;77.60
45237;DHT22;30973;51.442;3.580;2022-08-14T05:22:26;23.20;77.00
45237;DHT22;30973;51.442;3.580;2022-08-14T05:24:53;23.20;77.70
45237;DHT22;30973;51.442;3.580;2022-08-14T05:27:20;23.30;77.80
45237;DHT22;30973;51.442;3.580;2022-08-14T05:29:52;23.30;77.70
45237;DHT22;30973;51.442;3.580;2022-08-14T05:32:22;23.30;77.70
45237;DHT22;30973;51.442;3.580;2022-08-14T05:34:58;23.30;77.80
45237;DHT22;30973;51.442;3.580;2022-08-14T05:37:27;23.40;78.20
45237;DHT22;30973;51.442;3.580;2022-08-14T05:39:57;23.40;78.40
45237;DHT22;30973;51.442;3.580;2022-08-14T05:42:26;23.40;79.50
45237;DHT22;30973;51.442;3.580;2022-08-14T05:45:01;23.50;78.80
45237;DHT22;30973;51.442;3.580;2022-08-14T05:47:30;23.50;79.60
45237;DHT22;30973;51.442;3.580;2022-08-14T05:50:11;23.50;79.10
45237;DHT22;30973;51.442;3.580;2022-08-14T05:52:45;23.60;80.70
45237;DHT22;30973;51.442;3.580;2022-08-14T05:55:13;23.70;81.20
45237;DHT22;30973;51.442;3.580;2022-08-14T05:58:00;23.80;81.70
45237;DHT22;30973;51.442;3.580;2022-08-14T06:00:30;23.70;80.80
45237;DHT22;30973;51.442;3.580;2022-08-14T06:03:07;23.70;80.80
45237;DHT22;30973;51.442;3.580;2022-08-14T06:05:35;23.80;80.90
45237;DHT22;30973;51.442;3.580;2022-08-14T06:08:13;23.90;81.00
45237;DHT22;30973;51.442;3.580;2022-08-14T06:11:04;23.90;81.00
45237;DHT22;30973;51.442;3.580;2022-08-14T06:13:36;24.00;80.80
45237;DHT22;30973;51.442;3.580;2022-08-14T06:16:14;24.10;82.80
45237;DHT22;30973;51.442;3.580;2022-08-14T06:18:46;24.10;81.30
45237;DHT22;30973;51.442;3.580;2022-08-14T06:21:20;24.20;80.90
45237;DHT22;30973;51.442;3.580;2022-08-14T06:23:49;25.00;83.40
45237;DHT22;30973;51.442;3.580;2022-08-14T06:26:17;26.30;83.10
45237;DHT22;30973;51.442;3.580;2022-08-14T06:28:49;27.60;81.60
45237;DHT22;30973;51.442;3.580;2022-08-14T06:31:20;28.70;79.50
45237;DHT22;30973;51.442;3.580;2022-08-14T06:33:48;29.50;76.60
45237;DHT22;30973;51.442;3.580;2022-08-14T06:36:36;30.10;74.50
45237;DHT22;30973;51.442;3.580;2022-08-14T06:39:06;30.80;73.60
45237;DHT22;30973;51.442;3.580;2022-08-14T06:41:37;31.30;72.60
45237;DHT22;30973;51.442;3.580;2022-08-14T06:44:28;31.70;71.50
45237;DHT22;30973;51.442;3.580;2022-08-14T06:47:00;32.30;71.30
45237;DHT22;30973;51.442;3.580;2022-08-14T06:49:29;32.50;70.50
45237;DHT22;30973;51.442;3.580;2022-08-14T06:52:10;33.00;69.60
45237;DHT22;30973;51.442;3.580;2022-08-14T06:54:41;33.10;68.20
45237;DHT22;30973;51.442;3.580;2022-08-14T06:57:09;33.20;67.10
45237;DHT22;30973;51.442;3.580;2022-08-14T06:59:40;33.30;66.90
45237;DHT22;30973;51.442;3.580;2022-08-14T07:02:09;33.30;66.40
45237;DHT22;30973;51.442;3.580;2022-08-14T07:04:55;33.40;66.90
45237;DHT22;30973;51.442;3.580;2022-08-14T07:07:49;33.40;65.80
45237;DHT22;30973;51.442;3.580;2022-08-14T07:10:18;33.40;66.20
45237;DHT22;30973;51.442;3.580;2022-08-14T07:12:46;33.20;64.90
45237;DHT22;30973;51.442;3.580;2022-08-14T07:15:28;33.20;65.50
45237;DHT22;30973;51.442;3.580;2022-08-14T07:17:59;33.00;65.10
45237;DHT22;30973;51.442;3.580;2022-08-14T07:20:26;32.90;65.30
45237;DHT22;30973;51.442;3.580;2022-08-14T07:23:06;32.70;65.70
45237;DHT22;30973;51.442;3.580;2022-08-14T07:25:46;32.40;65.10
45237;DHT22;30973;51.442;3.580;2022-08-14T07:28:17;31.70;65.20
45237;DHT22;30973;51.442;3.580;2022-08-14T07:30:48;31.10;66.00
45237;DHT22;30973;51.442;3.580;2022-08-14T07:33:18;30.70;66.60
45237;DHT22;30973;51.442;3.580;2022-08-14T07:35:57;30.20;66.50
45237;DHT22;30973;51.442;3.580;2022-08-14T07:38:26;30.00;67.30
45237;DHT22;30973;51.442;3.580;2022-08-14T07:41:03;29.70;67.00
45237;DHT22;30973;51.442;3.580;2022-08-14T07:43:41;29.50;67.00
45237;DHT22;30973;51.442;3.580;2022-08-14T07:46:19;29.30;67.50
45237;DHT22;30973;51.442;3.580;2022-08-14T07:48:55;29.10;66.70
45237;DHT22;30973;51.442;3.580;2022-08-14T07:51:23;29.00;66.20
45237;DHT22;30973;51.442;3.580;2022-08-14T07:53:52;28.90;66.70
45237;DHT22;30973;51.442;3.580;2022-08-14T07:56:23;28.90;67.50
45237;DHT22;30973;51.442;3.580;2022-08-14T07:59:11;29.00;68.10
45237;DHT22;30973;51.442;3.580;2022-08-14T08:01:39;29.00;67.50
45237;DHT22;30973;51.442;3.580;2022-08-14T08:04:22;29.00;67.20
45237;DHT22;30973;51.442;3.580;2022-08-14T08:06:51;29.10;67.80
45237;DHT22;30973;51.442;3.580;2022-08-14T08:09:23;29.10;67.50
45237;DHT22;30973;51.442;3.580;2022-08-14T08:12:01;29.10;67.60
45237;DHT22;30973;51.442;3.580;2022-08-14T08:14:34;29.10;67.40
45237;DHT22;30973;51.442;3.580;2022-08-14T08:17:22;29.10;68.10
45237;DHT22;30973;51.442;3.580;2022-08-14T08:19:50;29.10;67.80
45237;DHT22;30973;51.442;3.580;2022-08-14T08:22:18;29.20;67.70
45237;DHT22;30973;51.442;3.580;2022-08-14T08:24:47;29.30;67.10
45237;DHT22;30973;51.442;3.580;2022-08-14T08:27:19;29.30;66.90
45237;DHT22;30973;51.442;3.580;2022-08-14T08:29:47;29.30;66.40
45237;DHT22;30973;51.442;3.580;2022-08-14T08:32:17;29.30;66.10
45237;DHT22;30973;51.442;3.580;2022-08-14T08:34:46;29.40;66.70
45237;DHT22;30973;51.442;3.580;2022-08-14T08:37:15;29.40;66.80
45237;DHT22;30973;51.442;3.580;2022-08-14T08:39:46;29.50;66.30
45237;DHT22;30973;51.442;3.580;2022-08-14T08:42:30;29.50;66.00
45237;DHT22;30973;51.442;3.580;2022-08-14T08:45:14;29.60;65.80
45237;DHT22;30973;51.442;3.580;2022-08-14T08:47:44;29.50;65.20
45237;DHT22;30973;51.442;3.580;2022-08-14T08:50:22;29.50;64.80
45237;DHT22;30973;51.442;3.580;2022-08-14T08:52:59;29.50;63.50
45237;DHT22;30973;51.442;3.580;2022-08-14T08:55:37;29.50;62.90
45237;DHT22;30973;51.442;3.580;2022-08-14T08:58:06;29.50;63.20
45237;DHT22;30973;51.442;3.580;2022-08-14T09:00:46;29.50;62.20
45237;DHT22;30973;51.442;3.580;2022-08-14T09:03:18;29.50;62.00
45237;DHT22;30973;51.442;3.580;2022-08-14T09:06:01;29.50;62.30
45237;DHT22;30973;51.442;3.580;2022-08-14T09:08:49;29.60;62.20
45237;DHT22;30973;51.442;3.580;2022-08-14T09:11:17;29.80;61.70
45237;DHT22;30973;51.442;3.580;2022-08-14T09:13:49;29.90;60.60
45237;DHT22;30973;51.442;3.580;2022-08-14T09:16:22;30.00;60.00
45237;DHT22;30973;51.442;3.580;2022-08-14T09:18:50;30.10;60.40
45237;DHT22;30973;51.442;3.580;2022-08-14T09:21:20;30.10;59.30
45237;DHT22;30973;51.442;3.580;2022-08-14T09:23:54;30.20;59.40
45237;DHT22;30973;51.442;3.580;2022-08-14T09:26:43;30.20;59.30
45237;DHT22;30973;51.442;3.580;2022-08-14T09:29:17;30.20;58.70
45237;DHT22;30973;51.442;3.580;2022-08-14T09:31:57;30.30;58.60
45237;DHT22;30973;51.442;3.580;2022-08-14T09:34:50;30.40;58.50
45237;DHT22;30973;51.442;3.580;2022-08-14T09:40:07;30.70;58.00
45237;DHT22;30973;51.442;3.580;2022-08-14T09:46:06;31.00;57.70
45237;DHT22;30973;51.442;3.580;2022-08-14T09:48:36;30.90;57.80
45237;DHT22;30973;51.442;3.580;2022-08-14T09:51:06;30.90;57.50
45237;DHT22;30973;51.442;3.580;2022-08-14T09:53:39;31.00;57.90
45237;DHT22;30973;51.442;3.580;2022-08-14T09:56:30;31.00;57.70
45237;DHT22;30973;51.442;3.580;2022-08-14T09:59:10;31.20;57.80
45237;DHT22;30973;51.442;3.580;2022-08-14T10:01:43;31.30;57.00
45237;DHT22;30973;51.442;3.580;2022-08-14T10:04:21;31.40;56.00
45237;DHT22;30973;51.442;3.580;2022-08-14T10:07:02;31.70;55.70
45237;DHT22;30973;51.442;3.580;2022-08-14T10:09:29;31.80;55.10
45237;DHT22;30973;51.442;3.580;2022-08-14T10:12:02;31.90;55.10
45237;DHT22;30973;51.442;3.580;2022-08-14T10:14:45;32.00;53.70
45237;DHT22;30973;51.442;3.580;2022-08-14T10:17:22;32.00;53.90
45237;DHT22;30973;51.442;3.580;2022-08-14T10:20:05;32.00;54.00
45237;DHT22;30973;51.442;3.580;2022-08-14T10:22:52;31.90;54.30
45237;DHT22;30973;51.442;3.580;2022-08-14T10:25:45;31.90;54.90
45237;DHT22;30973;51.442;3.580;2022-08-14T10:28:15;31.90;55.00
45237;DHT22;30973;51.442;3.580;2022-08-14T10:31:02;31.90;52.80
45237;DHT22;30973;51.442;3.580;2022-08-14T10:33:31;32.00;54.30
45237;DHT22;30973;51.442;3.580;2022-08-14T10:36:00;32.00;53.50
45237;DHT22;30973;51.442;3.580;2022-08-14T10:38:32;32.10;52.50
45237;DHT22;30973;51.442;3.580;2022-08-14T10:41:14;32.30;53.10
45237;DHT22;30973;51.442;3.580;2022-08-14T10:43:43;32.50;52.60
45237;DHT22;30973;51.442;3.580;2022-08-14T10:46:17;32.60;51.80
45237;DHT22;30973;51.442;3.580;2022-08-14T10:49:06;32.70;51.90
45237;DHT22;30973;51.442;3.580;2022-08-14T10:51:36;32.90;51.90
45237;DHT22;30973;51.442;3.580;2022-08-14T10:54:09;33.00;51.90
45237;DHT22;30973;51.442;3.580;2022-08-14T10:57:09;33.10;51.90
45237;DHT22;30973;51.442;3.580;2022-08-14T10:59:42;33.30;51.70
45237;DHT22;30973;51.442;3.580;2022-08-14T11:08:00;33.50;48.60
45237;DHT22;30973;51.442;3.580;2022-08-14T11:10:44;33.40;49.70
45237;DHT22;30973;51.442;3.580;2022-08-14T11:13:24;33.50;48.70
45237;DHT22;30973;51.442;3.580;2022-08-14T11:15:59;33.50;49.00
45237;DHT22;30973;51.442;3.580;2022-08-14T11:18:28;33.50;48.40
45237;DHT22;30973;51.442;3.580;2022-08-14T11:21:06;33.50;48.00
45237;DHT22;30973;51.442;3.580;2022-08-14T11:23:37;33.60;48.40
45237;DHT22;30973;51.442;3.580;2022-08-14T11:26:11;33.60;47.60
45237;DHT22;30973;51.442;3.580;2022-08-14T11:28:44;33.60;47.30
45237;DHT22;30973;51.442;3.580;2022-08-14T11:31:20;33.70;48.80
45237;DHT22;30973;51.442;3.580;2022-08-14T11:33:52;33.90;48.20
45237;DHT22;30973;51.442;3.580;2022-08-14T11:36:23;34.10;47.50
45237;DHT22;30973;51.442;3.580;2022-08-14T11:39:18;34.10;47.40
45237;DHT22;30973;51.442;3.580;2022-08-14T11:42:00;34.00;47.10
45237;DHT22;30973;51.442;3.580;2022-08-14T11:44:55;34.00;46.20
45237;DHT22;30973;51.442;3.580;2022-08-14T11:47:27;34.00;47.50
45237;DHT22;30973;51.442;3.580;2022-08-14T11:50:19;34.00;46.90
45237;DHT22;30973;51.442;3.580;2022-08-14T11:53:02;34.10;47.60
45237;DHT22;30973;51.442;3.580;2022-08-14T11:55:35;34.30;47.40
45237;DHT22;30973;51.442;3.580;2022-08-14T11:58:09;34.30;46.30
45237;DHT22;30973;51.442;3.580;2022-08-14T12:00:49;34.30;46.20
45237;DHT22;30973;51.442;3.580;2022-08-14T12:03:19;34.40;47.30
45237;DHT22;30973;51.442;3.580;2022-08-14T12:06:08;34.50;47.10
45237;DHT22;30973;51.442;3.580;2022-08-14T12:08:56;34.50;45.90
45237;DHT22;30973;51.442;3.580;2022-08-14T12:11:37;34.50;46.50
45237;DHT22;30973;51.442;3.580;2022-08-14T12:14:11;34.40;45.90
45237;DHT22;30973;51.442;3.580;2022-08-14T12:17:05;34.30;45.90
45237;DHT22;30973;51.442;3.580;2022-08-14T12:19:51;34.10;45.10
45237;DHT22;30973;51.442;3.580;2022-08-14T12:22:42;34.00;46.20
45237;DHT22;30973;51.442;3.580;2022-08-14T12:25:12;34.00;46.10
45237;DHT22;30973;51.442;3.580;2022-08-14T12:27:44;33.90;46.70
45237;DHT22;30973;51.442;3.580;2022-08-14T12:30:36;33.90;47.20
45237;DHT22;30973;51.442;3.580;2022-08-14T12:33:26;33.80;46.90
45237;DHT22;30973;51.442;3.580;2022-08-14T12:36:06;33.90;46.80
45237;DHT22;30973;51.442;3.580;2022-08-14T12:38:42;34.00;47.00
45237;DHT22;30973;51.442;3.580;2022-08-14T12:41:21;34.10;47.10
45237;DHT22;30973;51.442;3.580;2022-08-14T12:43:59;34.10;47.40
45237;DHT22;30973;51.442;3.580;2022-08-14T12:46:33;34.00;47.00
45237;DHT22;30973;51.442;3.580;2022-08-14T12:49:13;33.90;46.90
45237;DHT22;30973;51.442;3.580;2022-08-14T12:51:43;33.90;47.00
45237;DHT22;30973;51.442;3.580;2022-08-14T12:54:18;34.00;46.80
45237;DHT22;30973;51.442;3.580;2022-08-14T12:57:10;34.00;47.40
45237;DHT22;30973;51.442;3.580;2022-08-14T12:59:46;34.10;47.50
45237;DHT22;30973;51.442;3.580;2022-08-14T13:02:23;34.20;46.40
45237;DHT22;30973;51.442;3.580;2022-08-14T13:04:56;34.10;46.40
45237;DHT22;30973;51.442;3.580;2022-08-14T13:07:27;34.20;47.10
45237;DHT22;30973;51.442;3.580;2022-08-14T13:09:59;34.10;47.10
45237;DHT22;30973;51.442;3.580;2022-08-14T13:12:53;34.10;46.90
45237;DHT22;30973;51.442;3.580;2022-08-14T13:15:42;34.00;47.60
45237;DHT22;30973;51.442;3.580;2022-08-14T13:18:13;34.00;47.60
45237;DHT22;30973;51.442;3.580;2022-08-14T13:20:41;34.00;47.30
45237;DHT22;30973;51.442;3.580;2022-08-14T13:23:18;33.90;48.50
45237;DHT22;30973;51.442;3.580;2022-08-14T13:25:58;33.90;49.90
45237;DHT22;30973;51.442;3.580;2022-08-14T13:28:26;33.80;49.80
45237;DHT22;30973;51.442;3.580;2022-08-14T13:31:00;33.80;49.70
45237;DHT22;30973;51.442;3.580;2022-08-14T13:33:37;33.80;49.40
45237;DHT22;30973;51.442;3.580;2022-08-14T13:36:08;33.80;48.90
45237;DHT22;30973;51.442;3.580;2022-08-14T13:38:35;33.70;49.40
45237;DHT22;30973;51.442;3.580;2022-08-14T13:41:05;33.80;50.00
45237;DHT22;30973;51.442;3.580;2022-08-14T13:43:34;33.80;47.80
45237;DHT22;30973;51.442;3.580;2022-08-14T13:46:25;33.80;47.70
45237;DHT22;30973;51.442;3.580;2022-08-14T13:48:54;33.90;47.00
45237;DHT22;30973;51.442;3.580;2022-08-14T13:51:30;33.80;47.20
45237;DHT22;30973;51.442;3.580;2022-08-14T13:54:01;33.80;46.70
45237;DHT22;30973;51.442;3.580;2022-08-14T13:56:39;33.80;46.20
45237;DHT22;30973;51.442;3.580;2022-08-14T13:59:08;33.80;46.70
45237;DHT22;30973;51.442;3.580;2022-08-14T14:01:36;33.80;46.40
45237;DHT22;30973;51.442;3.580;2022-08-14T14:04:16;33.80;46.90
45237;DHT22;30973;51.442;3.580;2022-08-14T14:06:48;33.80;46.80
45237;DHT22;30973;51.442;3.580;2022-08-14T14:09:27;33.80;47.20
45237;DHT22;30973;51.442;3.580;2022-08-14T14:12:15;33.70;46.20
45237;DHT22;30973;51.442;3.580;2022-08-14T14:15:08;33.70;47.10
45237;DHT22;30973;51.442;3.580;2022-08-14T14:17:38;33.60;46.60
45237;DHT22;30973;51.442;3.580;2022-08-14T14:20:11;33.70;46.30
45237;DHT22;30973;51.442;3.580;2022-08-14T14:22:59;33.70;46.00
45237;DHT22;30973;51.442;3.580;2022-08-14T14:25:40;33.70;46.10
45237;DHT22;30973;51.442;3.580;2022-08-14T14:28:15;33.70;46.30
45237;DHT22;30973;51.442;3.580;2022-08-14T14:30:52;33.60;45.40
45237;DHT22;30973;51.442;3.580;2022-08-14T14:33:24;33.50;46.00
45237;DHT22;30973;51.442;3.580;2022-08-14T14:36:16;33.40;46.20
45237;DHT22;30973;51.442;3.580;2022-08-14T14:38:56;33.40;46.90
45237;DHT22;30973;51.442;3.580;2022-08-14T14:41:26;33.40;47.90
45237;DHT22;30973;51.442;3.580;2022-08-14T14:44:10;33.30;48.70
45237;DHT22;30973;51.442;3.580;2022-08-14T14:46:43;33.40;48.60
45237;DHT22;30973;51.442;3.580;2022-08-14T14:49:20;33.40;48.90
45237;DHT22;30973;51.442;3.580;2022-08-14T14:52:09;33.40;49.20
45237;DHT22;30973;51.442;3.580;2022-08-14T14:54:49;33.40;48.20
45237;DHT22;30973;51.442;3.580;2022-08-14T14:57:17;33.40;48.40
45237;DHT22;30973;51.442;3.580;2022-08-14T14:59:45;33.30;47.80
45237;DHT22;30973;51.442;3.580;2022-08-14T15:02:34;33.20;47.70
45237;DHT22;30973;51.442;3.580;2022-08-14T15:05:04;33.30;46.50
45237;DHT22;30973;51.442;3.580;2022-08-14T15:07:33;33.20;46.10
45237;DHT22;30973;51.442;3.580;2022-08-14T15:10:03;33.10;46.60
45237;DHT22;30973;51.442;3.580;2022-08-14T15:12:31;33.10;45.70
45237;DHT22;30973;51.442;3.580;2022-08-14T15:15:20;33.10;45.70
45237;DHT22;30973;51.442;3.580;2022-08-14T15:17:48;32.90;45.40
45237;DHT22;30973;51.442;3.580;2022-08-14T15:20:21;32.90;45.30
45237;DHT22;30973;51.442;3.580;2022-08-14T15:22:58;32.90;45.50
45237;DHT22;30973;51.442;3.580;2022-08-14T15:25:42;32.90;45.70
45237;DHT22;30973;51.442;3.580;2022-08-14T15:28:19;32.90;45.80
45237;DHT22;30973;51.442;3.580;2022-08-14T15:30:50;32.90;46.00
45237;DHT22;30973;51.442;3.580;2022-08-14T15:33:25;32.90;46.40
45237;DHT22;30973;51.442;3.580;2022-08-14T15:36:51;32.90;46.40
45237;DHT22;30973;51.442;3.580;2022-08-14T15:39:20;32.90;46.30
45237;DHT22;30973;51.442;3.580;2022-08-14T15:41:47;32.90;46.10
45237;DHT22;30973;51.442;3.580;2022-08-14T15:44:16;32.90;45.90
45237;DHT22;30973;51.442;3.580;2022-08-14T15:46:53;32.90;45.50
45237;DHT22;30973;51.442;3.580;2022-08-14T15:49:22;33.00;45.60
45237;DHT22;30973;51.442;3.580;2022-08-14T15:51:55;32.90;44.70
45237;DHT22;30973;51.442;3.580;2022-08-14T15:54:26;32.90;45.00
45237;DHT22;30973;51.442;3.580;2022-08-14T15:56:59;32.90;45.50
45237;DHT22;30973;51.442;3.580;2022-08-14T15:59:28;32.90;46.00
45237;DHT22;30973;51.442;3.580;2022-08-14T16:02:20;32.80;45.40
45237;DHT22;30973;51.442;3.580;2022-08-14T16:04:54;32.80;45.70
45237;DHT22;30973;51.442;3.580;2022-08-14T16:07:25;32.80;45.70
45237;DHT22;30973;51.442;3.580;2022-08-14T16:09:54;32.70;45.50
45237;DHT22;30973;51.442;3.580;2022-08-14T16:12:42;32.70;45.50
45237;DHT22;30973;51.442;3.580;2022-08-14T16:15:14;32.70;45.90
45237;DHT22;30973;51.442;3.580;2022-08-14T16:17:44;32.70;45.90
45237;DHT22;30973;51.442;3.580;2022-08-14T16:20:12;32.60;45.30
45237;DHT22;30973;51.442;3.580;2022-08-14T16:23:03;32.60;45.90
45237;DHT22;30973;51.442;3.580;2022-08-14T16:25:39;32.60;46.00
45237;DHT22;30973;51.442;3.580;2022-08-14T16:28:09;32.50;46.20
45237;DHT22;30973;51.442;3.580;2022-08-14T16:30:53;32.50;46.40
45237;DHT22;30973;51.442;3.580;2022-08-14T16:33:22;32.40;46.60
45237;DHT22;30973;51.442;3.580;2022-08-14T16:36:13;32.40;46.60
45237;DHT22;30973;51.442;3.580;2022-08-14T16:38:59;32.40;46.90
45237;DHT22;30973;51.442;3.580;2022-08-14T16:41:28;32.40;46.80